HKNW/WIL METAR and TAF weather

Enter ICAO airport designator
Station Type Date Time Source
HKNW METAR 2019/06/16 06:00 UTC NOAA

HKNW 160600Z 00000KT 9999 OVC016 15/13 Q1026


Station Type Date Time Source
HKNW Decoded METAR 2019/06/16 06:00 UTC NOAA

Nairobi / Wilson, Kenya (HKNW) 01-19S 036-49E 1679M
Jun 16, 2019 - 02:00 AM EDT / 2019.06.16 0600 UTC
Wind: Calm:0
Visibility: greater than 7 mile(s):0
Sky conditions: overcast
Temperature: 59 F (15 C)
Dew Point: 55 F (13 C)
Relative Humidity: 87%
Pressure (altimeter): 30.30 in. Hg (1026 hPa)
ob: HKNW 160600Z 00000KT 9999 OVC016 15/13 Q1026
cycle: 6

Station Type Date Time Source
HKNW TAF 2012/11/22 12:18 UTC NOAA

TAF TAF HKNW 221030Z 2212/2312 03010KT 9999 FEW025CB SCT026
TEMPO 2212/2218 VRB10KT -SHRA FEW024CB BKN025
BECMG 2220/2223 07005KT CAVOK
TEMPO 2300/2300 VRB05KT 9999 FEW006 BKN016
BECMG 2308/2311 08010KT SCT026

Example: see airport list